createdAt,value
2022-10-05T00:05:23.737Z,80.4
2022-10-05T00:20:33.748Z,80.5
2022-10-05T00:35:42.694Z,80.4
2022-10-05T00:50:52.491Z,80.1
2022-10-05T01:06:01.779Z,80.4
2022-10-05T01:21:11.103Z,80.2
2022-10-05T01:36:20.851Z,80.1
2022-10-05T01:51:30.553Z,80
2022-10-05T02:06:40.240Z,79.8
2022-10-05T02:22:11.782Z,79.4
2022-10-05T02:37:22.286Z,79.9
2022-10-05T02:52:31.994Z,79.9
2022-10-05T03:07:41.950Z,80
2022-10-05T03:22:51.517Z,80.2
2022-10-05T03:38:01.119Z,80.3
2022-10-05T03:53:10.579Z,80.3
2022-10-05T04:08:20.133Z,80.4
2022-10-05T04:23:30.018Z,80.9
2022-10-05T04:38:39.804Z,80.8
2022-10-05T04:53:49.726Z,80.5
2022-10-05T05:08:59.138Z,80.3
2022-10-05T05:24:08.843Z,80.4
2022-10-05T05:39:18.208Z,80.4
2022-10-05T05:54:27.927Z,81
2022-10-05T06:09:37.560Z,81
2022-10-05T06:24:48.130Z,80.9
2022-10-05T06:40:01.936Z,80.8
2022-10-05T06:55:14.835Z,80.4
2022-10-05T07:10:23.961Z,80.2
2022-10-05T07:25:33.594Z,80.1
2022-10-05T07:40:43.052Z,80.1
2022-10-05T07:55:52.796Z,80.1
2022-10-05T08:11:02.513Z,79.7
2022-10-05T08:26:12.216Z,79.2
2022-10-05T08:41:22.077Z,78.9
2022-10-05T08:56:32.011Z,78.7
2022-10-05T09:11:41.654Z,78.6
2022-10-05T09:26:51.557Z,78.7
2022-10-05T09:42:01.553Z,78.7
2022-10-05T09:57:10.831Z,78.7
2022-10-05T10:12:20.165Z,78.4
2022-10-05T10:27:29.797Z,78.3
2022-10-05T10:42:39.088Z,78.1
2022-10-05T10:57:49.234Z,77.6
2022-10-05T11:12:58.884Z,76.9
2022-10-05T11:28:09.761Z,76.2
2022-10-05T11:43:20.373Z,75.3
2022-10-05T11:58:32.096Z,73.9
2022-10-05T12:13:42.315Z,74.1
2022-10-05T12:28:51.838Z,73.4
2022-10-05T12:44:01.906Z,71.4
2022-10-05T12:59:11.819Z,70.4
2022-10-05T13:18:36.150Z,61.3
2022-10-05T13:33:48.072Z,63.9
2022-10-05T13:48:56.920Z,64.5
2022-10-05T14:04:05.359Z,68.2
2022-10-05T14:19:14.335Z,69.2
2022-10-05T14:34:24.149Z,69.8
2022-10-05T14:49:33.808Z,70
2022-10-05T15:04:43.431Z,70.2
2022-10-05T15:19:53.400Z,70.7
2022-10-05T15:35:02.802Z,71.2
2022-10-05T15:50:11.737Z,71.7
2022-10-05T16:05:22.044Z,72.2
2022-10-05T16:20:31.679Z,72.7
2022-10-05T16:35:41.439Z,73.1
2022-10-05T16:50:50.927Z,73.4
2022-10-05T17:06:01.693Z,73.8
2022-10-05T17:21:10.610Z,74.2
2022-10-05T17:36:19.743Z,74.6
2022-10-05T17:51:29.338Z,75.1
2022-10-05T18:06:38.856Z,75.5
2022-10-05T18:21:48.363Z,75.8
2022-10-05T18:36:58.449Z,75.1
2022-10-05T18:52:10.374Z,74.7
2022-10-05T19:07:20.216Z,74.1
2022-10-05T19:22:29.936Z,74.3
2022-10-05T19:37:40.200Z,74
2022-10-05T19:52:50.652Z,73.9
2022-10-05T20:07:59.903Z,73.7
2022-10-05T20:23:10.341Z,73.9
2022-10-05T20:38:20.226Z,73.9
2022-10-05T20:53:29.578Z,74
2022-10-05T21:08:39.108Z,74.3
2022-10-05T21:23:48.653Z,74.2
2022-10-05T21:38:57.933Z,74.9
2022-10-05T21:54:09.431Z,74.8
2022-10-05T22:09:18.790Z,74.7
2022-10-05T22:24:28.514Z,75.2
2022-10-05T22:39:38.039Z,74.8
2022-10-05T22:54:47.437Z,74.8
2022-10-05T23:09:56.991Z,75
2022-10-05T23:25:06.586Z,75.2
2022-10-05T23:40:16.237Z,75.2
2022-10-05T23:55:25.492Z,74.7
